• Join FlightAware (Why Join?)
  • Login
  • US Flag 
03:26AM EDT


 

Airport Tracker/Info


-or-


 

Live Flight TrackerFlight Track Log ✈ SWA3294 ✈ 06-Jul-2013 ✈ KMCO - KBUF

Flight Track Log - Related Links

Times and Time Zones

All times are in EDT time to prevent confusion due to time zone crossing. See the SWA3294 flight status page for this flight to view local times or setup timezone preferences in your user account.

Time Position Orientation Groundspeed Altitude Reporting Facility
EDT Latitude Longitude Course Direction KTS MPH feet Rate Location/Type
08:23PM 28.4000 -81.3000 164° South 156 180 700  Level Orlando TRACON
08:24PM 28.3500 -81.2833 164° South 208 239 3,900 3,000 Climbing Orlando TRACON
08:25PM 28.3333 -81.2333 111° Southeast 218 251 7,400 2,820 Climbing Orlando TRACON
08:27PM 28.4289 -81.2094 12° North 257 296 11,100 2,280 Climbing Jacksonville Center
08:28PM 28.5233 -81.2339 347° North 290 334 13,200 2,460 Climbing Jacksonville Center
08:29PM 28.6236 -81.2606 347° North 333 383 16,100 2,520 Climbing Jacksonville Center
08:30PM 28.7325 -81.2919 346° North 363 418 18,300 2,100 Climbing Jacksonville Center
08:31PM 28.8458 -81.3233 346° North 400 460 20,400 2,160 Climbing Jacksonville Center
08:32PM 28.9608 -81.3547 347° North 417 480 22,700 2,160 Climbing Jacksonville Center
08:33PM 29.0844 -81.3861 347° North 427 491 24,800 2,040 Climbing Jacksonville Center
08:34PM 29.2097 -81.4033 353° North 438 504 26,800 1,860 Climbing Jacksonville Center
08:35PM 29.3353 -81.4156 355° North 451 519 28,600 1,560 Climbing Jacksonville Center
08:36PM 29.4669 -81.4281 355° North 456 525 30,000 1,680 Climbing Jacksonville Center
08:37PM 29.5942 -81.4308 359° North 461 531 32,000 1,980 Climbing Jacksonville Center
08:38PM 29.7217 -81.4336 359° North 461 531 34,000 2,340 Climbing Jacksonville Center
08:39PM 29.8428 -81.4294 North 449 517 36,700 2,280 Climbing Jacksonville Center
08:40PM 29.9553 -81.4303 360° North 423 487 38,600 1,140 Climbing Jacksonville Center
08:41PM 30.0658 -81.4167 North 402 463 39,000 180 Climbing Jacksonville Center
08:42PM 30.1806 -81.4075 North 402 463 39,000  Level Jacksonville Center
08:43PM 30.2850 -81.3964 North 409 471 39,000  Level Jacksonville Center
08:44PM 30.3975 -81.3875 North 409 471 39,000  Level Jacksonville Center
08:45PM 30.5142 -81.3733 North 409 471 39,000  Level Jacksonville Center
08:46PM 30.6311 -81.3644 North 409 471 39,000  Level Jacksonville Center
08:47PM 30.7458 -81.3553 North 409 471 39,000  Level Jacksonville Center
08:48PM 30.8606 -81.3436 North 409 471 39,000  Level Jacksonville Center
08:49PM 30.9772 -81.3344 North 414 476 39,000  Level Jacksonville Center
08:50PM 31.0942 -81.3228 North 414 476 39,000  Level Jacksonville Center
08:51PM 31.2067 -81.3114 North 414 476 39,000  Level Jacksonville Center
08:52PM 31.3236 -81.3019 North 414 476 39,000  Level Jacksonville Center
08:53PM 31.4464 -81.2878 North 407 468 39,000  Level Jacksonville Center
08:54PM 31.5528 -81.2786 North 407 468 39,000  Level Jacksonville Center
08:55PM 31.6800 -81.2642 North 413 475 39,000  Level Jacksonville Center
08:56PM 31.7844 -81.2550 North 413 475 39,000  Level Jacksonville Center
08:57PM 31.9136 -81.2456 North 418 481 39,000  Level Jacksonville Center
08:58PM 32.0325 -81.2333 North 418 481 39,000  Level Jacksonville Center
08:59PM 32.1472 -81.2242 North 424 488 39,000  Level Jacksonville Center
09:00PM 32.2661 -81.2119 North 424 488 39,000  Level Jacksonville Center
09:01PM 32.3828 -81.2000 North 420 483 39,000  Level Jacksonville Center
09:02PM 32.5017 -81.1931 North 428 493 39,000  Level Jacksonville Center
09:03PM 32.6206 -81.1808 North 421 484 39,000  Level Jacksonville Center
09:04PM 32.7372 -81.1664 North 421 484 39,000  Level Jacksonville Center
09:05PM 32.8581 -81.1542 North 426 490 39,000  Level Jacksonville Center
09:06PM 32.9769 -81.1444 North 426 490 39,000  Level Jacksonville Center
09:07PM 33.0978 -81.1319 North 426 490 39,000  Level Jacksonville Center
09:08PM 33.2167 -81.1197 North 426 490 39,000  Level Jacksonville Center
09:09PM 33.3375 -81.1100 North 426 490 39,000  Level Jacksonville Center
09:10PM 33.4606 -81.0975 North 426 490 39,000  Level Jacksonville Center
09:11PM 33.5814 -81.0850 North 426 490 39,000  Level Jacksonville Center
09:12PM 33.7022 -81.0728 North 426 490 39,000  Level Jacksonville Center
09:13PM 33.8231 -81.0550 North 431 496 39,000  Level Jacksonville Center
09:14PM 33.9503 -81.0450 North 442 509 39,000  Level Jacksonville Center
09:15PM 34.0689 -81.0325 North 442 509 39,000  Level Jacksonville Center
09:17PM 34.3514 -81.0019 North 441 507 39,000  Level Atlanta Center
09:18PM 34.4850 -80.9944 North 441 507 39,000  Level Atlanta Center
09:19PM 34.6078 -80.9825 North 441 507 39,000  Level Atlanta Center
09:20PM 34.7306 -80.9656 North 436 502 39,000  Level Atlanta Center
09:21PM 34.8533 -80.9558 North 441 507 39,000  Level Atlanta Center
09:22PM 34.9758 -80.9361 North 441 507 39,000  Level Atlanta Center
09:23PM 35.0967 -80.9264 North 441 507 39,000  Level Atlanta Center
09:24PM 35.2175 -80.9144 North 441 507 39,000  Level Atlanta Center
09:25PM 35.3422 -80.8994 North 441 507 39,000  Level Atlanta Center
09:26PM 35.4647 -80.8769 North 441 507 39,000  Level Atlanta Center
09:27PM 35.5892 -80.8492 10° North 447 514 39,000  Level Atlanta Center
09:28PM 35.7117 -80.8264 North 447 514 39,000  Level Atlanta Center
09:29PM 35.8361 -80.7958 11° North 447 514 39,000  Level Atlanta Center
09:30PM 35.9533 -80.7347 23° Northeast 447 514 39,000  Level Atlanta Center
09:31PM 36.0683 -80.6658 26° Northeast 459 528 39,000  Level Atlanta Center
09:34PM 36.3089 -80.5256 25° Northeast 457 526 39,000  Level Washington Center
09:35PM 36.4239 -80.4658 23° Northeast 449 517 39,000  Level Washington Center
09:36PM 36.5342 -80.4233 17° North 435 501 39,000  Level Washington Center
09:37PM 36.6636 -80.3694 18° North 435 501 39,000  Level Washington Center
09:38PM 36.7814 -80.3506 North 429 494 39,000  Level Washington Center
09:39PM 36.9011 -80.3294 North 429 494 39,000  Level Washington Center
09:40PM 37.0208 -80.3108 North 429 494 39,000  Level Washington Center
09:41PM 37.1300 -80.2914 North 429 494 39,000  Level Washington Center
09:42PM 37.2497 -80.2703 North 429 494 39,000  Level Washington Center
09:43PM 37.3694 -80.2514 North 429 494 39,000  Level Washington Center
09:44PM 37.4933 -80.2303 North 434 499 39,000  Level Washington Center
09:45PM 37.6194 -80.2064 North 440 506 39,000  Level Washington Center
09:46PM 37.7536 -80.1858 North 445 512 39,000  Level Washington Center
09:47PM 37.8778 -80.1617 North 445 512 39,000  Level Washington Center
09:48PM 38.0056 -80.1406 North 450 518 39,000  Level Washington Center
09:49PM 38.1275 -80.1164 North 450 518 39,000  Level Washington Center
09:50PM 38.2408 -80.0967 North 450 518 39,000  Level Washington Center
09:51PM 38.3647 -80.0750 North 450 518 39,000  Level Washington Center
09:52PM 38.4886 -80.0533 North 450 518 39,000  Level Washington Center
09:53PM 38.6125 -80.0289 North 450 518 39,000  Level Washington Center
09:54PM 38.7489 -80.0078 North 450 518 39,000  Level Washington Center
09:55PM 38.8708 -79.9833 North 450 518 39,000  Level Washington Center
09:56PM 39.0606 -79.9389 10° North 464 534 39,000  Level Cleveland Center
09:57PM 39.1836 -79.9164 North 464 534 39,000  Level Cleveland Center
09:58PM 39.3064 -79.8936 North 454 522 39,000  Level Cleveland Center
09:59PM 39.4333 -79.8736 North 454 522 39,000  Level Cleveland Center
10:00PM 39.5561 -79.8481 North 449 517 39,000  Level Cleveland Center
10:01PM 39.6811 -79.8250 North 449 517 39,000  Level Cleveland Center
10:02PM 39.8039 -79.8022 North 449 517 39,000  Level Cleveland Center
10:03PM 39.9183 -79.7792 North 455 524 39,000  Level Cleveland Center
10:04PM 40.0453 -79.7558 North 455 524 39,000  Level Cleveland Center
10:05PM 40.1683 -79.7328 North 455 524 39,000 -540 Level Cleveland Center
10:06PM 40.2911 -79.7067 North 444 511 38,000 -960 Descending Cleveland Center
10:07PM 40.4158 -79.6831 North 444 511 37,100 -900 Descending Cleveland Center
10:08PM 40.5408 -79.6622 North 444 511 36,200 -960 Descending Cleveland Center
10:09PM 40.6700 -79.6358 North 450 518 35,200 -960 Descending Cleveland Center
10:10PM 40.7989 -79.6122 North 460 529 34,300 -1,020 Descending Cleveland Center
10:11PM 40.9258 -79.5883 North 460 529 33,200 -1,080 Descending Cleveland Center
10:12PM 41.0486 -79.5617 North 460 529 32,200 -1,020 Descending Cleveland Center
10:13PM 41.1736 -79.5378 North 460 529 31,200 -1,020 Descending Cleveland Center
10:14PM 41.2942 -79.5136 North 447 514 30,200 -1,020 Descending Cleveland Center
10:15PM 41.4128 -79.4922 North 442 509 29,200 -1,020 Descending Cleveland Center
10:16PM 41.5314 -79.4708 North 436 502 28,200 -1,020 Descending Cleveland Center
10:17PM 41.6458 -79.4467 North 423 487 27,200 -1,500 Descending Cleveland Center
10:18PM 41.7644 -79.4222 North 423 487 25,300 -2,100 Descending Cleveland Center
10:19PM 41.8747 -79.4008 North 418 481 23,000 -2,460 Descending Cleveland Center
10:20PM 41.9911 -79.3764 North 413 475 20,400 -2,520 Descending Cleveland Center
10:21PM 42.1014 -79.3547 North 407 468 18,000 -2,400 Descending Cleveland Center
10:22PM 42.2139 -79.3328 North 407 468 15,600 -2,460 Descending Cleveland Center
10:23PM 42.3239 -79.3083 North 407 468 13,100 -2,220 Descending Cleveland Center
10:24PM 42.4300 -79.2836 10° North 401 461 11,200 -1,500 Descending Cleveland Center
10:25PM 42.5339 -79.2447 15° North 378 435 10,200 -1,140 Descending Cleveland Center
10:26PM 42.6186 -79.2006 21° North 336 387 9,000 -1,200 Descending Cleveland Center
10:27PM 42.6908 -79.1425 31° Northeast 305 351 7,800 -1,320 Descending Cleveland Center
10:28PM 42.7528 -79.0903 32° Northeast 293 337 6,400 -1,380 Descending Cleveland Center
10:29PM 42.8231 -79.0347 30° Northeast 293 337 5,100 -1,200 Descending Cleveland Center
10:30PM 42.8992 -78.9764 29° Northeast 283 326 4,100 -660 Descending Cleveland Center
10:31PM 42.9547 -78.9294 32° Northeast 260 299 3,800 -600 Descending Cleveland Center
10:32PM 42.9936 -78.8658 50° Northeast 238 274 3,000 -660 Descending Cleveland Center
10:33PM 43.0333 -78.7833 57° Northeast 227 261 2,500 -240 Descending Buffalo TRACON
10:34PM 43.0667 -78.7167 56° Northeast 219 252 2,500 -180 Level Buffalo TRACON
10:35PM 43.0333 -78.6500 124° Southeast 166 191 2,200 -360 Descending Buffalo TRACON
10:36PM 43.0000 -78.6500 180° South 127 146 1,800 -480 Descending Buffalo TRACON
10:37PM 42.9667 -78.6833 216° Southwest 133 153 1,300 -540 Descending Buffalo TRACON